Airfield :
LOGIN :

Register | Disclaimer

   EN    FR    IT 

 










Legend :    VFR   Marginal VFR   IFR   Intensive IFR   Very Intensive IFR
Visi :
Ceiling :
>= 8 km
>= 3000ft
5 to 8 km
1000 to 3000 ft
1500m to 5 km
500 to 1000 ft
800 to 1500m
200 to 500 ft
< 800m
< 200 ft
Symbols :   Thunderstorms  Fog  Heavy snow  Heavy precipitations  Wind > 20 kt
SIGMETs :     Misc.  Thunderstorms  Icing  Turbulence  Mountain Waves  Volcanic Ashes







- Airport Elevation : 1989 ft
- IATA code : KLV


LKKV - Karlovy Vary

CURRENT METAR :
  • 251100Z 09005KT 060V120 9999 SCT013 BKN026 12/10 Q1021

EXPIRED METARs :
  • 251030Z 07005KT 9999 SCT010 BKN023 12/10 Q1021
  • 251000Z 06003KT 360V090 9999 SCT009 BKN023 12/10 Q1021
  • 250930Z 03003KT 350V060 9999 BKN008 BKN023 12/10 Q1021
  • 250900Z VRB02KT 9000 SCT005 BKN020 11/09 Q1021
  • 250830Z VRB02KT 9000 SCT004 BKN020 11/10 Q1021

TAF AMD TAF LKKV
Valid from the 25 at 07:00 until the 26 at 12:00 UTC


250725Z 2507/2612 VRB02KT 5000 BR BKN002
TEMPO 2507/2511 7000 -RA BKN005
BECMG 2511/2513 9999 BKN017
TEMPO 2513/2520 -SHRA
TEMPO 2600/2607 5000 BR SCT007
No reported NOTAMs for that airfield.



MET'MAP, your aeronautical weather chart ! - Copyright ORBIFLY December 2007 - Disclaimer

ORBIFLY MET'MAP TEAM :

Programming & Development : Alexandra Zaïnal
Concept & Development : Baudouin d'Aumeries
Co-Development & Prog : Marc-Olivier Méhu
Technical & hardware support : Manuel Goepfert

Contact : metmap@orbifly.com




SOURCES & CREDITS :

   NOAA